sensor_id;sensor_type;location;lat;lon;timestamp;P1;durP1;ratioP1;P2;durP2;ratioP2
22737;SDS011;11536;50.860;4.286;2023-11-19T00:02:08;7.57;;;1.63;;
22737;SDS011;11536;50.860;4.286;2023-11-19T00:04:37;5.88;;;1.27;;
22737;SDS011;11536;50.860;4.286;2023-11-19T00:07:04;4.28;;;1.27;;
22737;SDS011;11536;50.860;4.286;2023-11-19T00:09:35;6.50;;;1.58;;
22737;SDS011;11536;50.860;4.286;2023-11-19T00:12:02;4.68;;;1.23;;
22737;SDS011;11536;50.860;4.286;2023-11-19T00:14:29;4.82;;;1.10;;
22737;SDS011;11536;50.860;4.286;2023-11-19T00:16:55;5.28;;;1.30;;
22737;SDS011;11536;50.860;4.286;2023-11-19T00:19:21;6.35;;;1.20;;
22737;SDS011;11536;50.860;4.286;2023-11-19T00:21:49;6.38;;;1.90;;
22737;SDS011;11536;50.860;4.286;2023-11-19T00:24:15;3.25;;;1.35;;
22737;SDS011;11536;50.860;4.286;2023-11-19T00:26:42;7.05;;;1.50;;
22737;SDS011;11536;50.860;4.286;2023-11-19T00:29:08;4.47;;;1.27;;
22737;SDS011;11536;50.860;4.286;2023-11-19T00:31:34;5.63;;;1.27;;
22737;SDS011;11536;50.860;4.286;2023-11-19T00:34:00;5.65;;;1.27;;
22737;SDS011;11536;50.860;4.286;2023-11-19T00:36:26;9.05;;;1.58;;
22737;SDS011;11536;50.860;4.286;2023-11-19T00:38:53;6.38;;;1.35;;
22737;SDS011;11536;50.860;4.286;2023-11-19T00:41:19;6.00;;;1.40;;
22737;SDS011;11536;50.860;4.286;2023-11-19T00:43:44;6.63;;;1.48;;
22737;SDS011;11536;50.860;4.286;2023-11-19T00:46:10;7.65;;;1.10;;
22737;SDS011;11536;50.860;4.286;2023-11-19T00:48:36;6.55;;;1.20;;
22737;SDS011;11536;50.860;4.286;2023-11-19T00:51:02;6.00;;;1.13;;
22737;SDS011;11536;50.860;4.286;2023-11-19T00:53:31;8.07;;;1.15;;
22737;SDS011;11536;50.860;4.286;2023-11-19T00:55:57;9.38;;;1.80;;
22737;SDS011;11536;50.860;4.286;2023-11-19T00:58:23;7.07;;;1.10;;
22737;SDS011;11536;50.860;4.286;2023-11-19T01:00:48;4.63;;;1.00;;
22737;SDS011;11536;50.860;4.286;2023-11-19T01:03:14;7.22;;;1.25;;
22737;SDS011;11536;50.860;4.286;2023-11-19T01:05:41;9.25;;;1.23;;
22737;SDS011;11536;50.860;4.286;2023-11-19T01:08:06;6.50;;;1.15;;
22737;SDS011;11536;50.860;4.286;2023-11-19T01:10:33;7.18;;;1.30;;
22737;SDS011;11536;50.860;4.286;2023-11-19T01:12:59;7.75;;;1.67;;
22737;SDS011;11536;50.860;4.286;2023-11-19T01:15:24;6.53;;;1.00;;
22737;SDS011;11536;50.860;4.286;2023-11-19T01:17:50;6.63;;;1.27;;
22737;SDS011;11536;50.860;4.286;2023-11-19T01:20:16;3.28;;;0.93;;
22737;SDS011;11536;50.860;4.286;2023-11-19T01:22:42;5.38;;;1.02;;
22737;SDS011;11536;50.860;4.286;2023-11-19T01:25:08;7.60;;;1.60;;
22737;SDS011;11536;50.860;4.286;2023-11-19T01:27:34;4.30;;;1.15;;
22737;SDS011;11536;50.860;4.286;2023-11-19T01:30:00;6.55;;;1.02;;
22737;SDS011;11536;50.860;4.286;2023-11-19T01:32:28;4.70;;;1.05;;
22737;SDS011;11536;50.860;4.286;2023-11-19T01:34:54;8.13;;;1.80;;
22737;SDS011;11536;50.860;4.286;2023-11-19T01:37:20;9.77;;;1.13;;
22737;SDS011;11536;50.860;4.286;2023-11-19T01:39:45;8.65;;;1.10;;
22737;SDS011;11536;50.860;4.286;2023-11-19T01:42:11;12.98;;;2.10;;
22737;SDS011;11536;50.860;4.286;2023-11-19T01:44:37;5.72;;;1.17;;
22737;SDS011;11536;50.860;4.286;2023-11-19T01:47:03;7.65;;;1.17;;
22737;SDS011;11536;50.860;4.286;2023-11-19T01:49:29;11.90;;;1.40;;
22737;SDS011;11536;50.860;4.286;2023-11-19T01:51:57;6.97;;;0.95;;
22737;SDS011;11536;50.860;4.286;2023-11-19T01:54:23;11.43;;;1.50;;
22737;SDS011;11536;50.860;4.286;2023-11-19T01:56:49;8.32;;;1.35;;
22737;SDS011;11536;50.860;4.286;2023-11-19T01:59:15;11.85;;;1.40;;
22737;SDS011;11536;50.860;4.286;2023-11-19T02:01:41;9.63;;;1.52;;
22737;SDS011;11536;50.860;4.286;2023-11-19T02:04:08;7.50;;;1.73;;
22737;SDS011;11536;50.860;4.286;2023-11-19T02:06:34;8.77;;;1.20;;
22737;SDS011;11536;50.860;4.286;2023-11-19T02:09:02;13.88;;;2.10;;
22737;SDS011;11536;50.860;4.286;2023-11-19T02:11:32;7.35;;;1.15;;
22737;SDS011;11536;50.860;4.286;2023-11-19T02:13:59;11.13;;;1.60;;
22737;SDS011;11536;50.860;4.286;2023-11-19T02:16:25;13.60;;;1.58;;
22737;SDS011;11536;50.860;4.286;2023-11-19T02:18:51;15.15;;;1.55;;
22737;SDS011;11536;50.860;4.286;2023-11-19T02:21:16;14.05;;;1.70;;
22737;SDS011;11536;50.860;4.286;2023-11-19T02:23:43;12.50;;;1.50;;
22737;SDS011;11536;50.860;4.286;2023-11-19T02:28:49;10.05;;;1.80;;
22737;SDS011;11536;50.860;4.286;2023-11-19T02:31:15;12.10;;;1.48;;
22737;SDS011;11536;50.860;4.286;2023-11-19T02:33:40;10.88;;;1.40;;
22737;SDS011;11536;50.860;4.286;2023-11-19T02:36:06;9.20;;;1.63;;
22737;SDS011;11536;50.860;4.286;2023-11-19T02:38:33;9.45;;;1.95;;
22737;SDS011;11536;50.860;4.286;2023-11-19T02:41:00;10.00;;;1.70;;
22737;SDS011;11536;50.860;4.286;2023-11-19T02:43:30;8.45;;;1.35;;
22737;SDS011;11536;50.860;4.286;2023-11-19T02:45:58;7.63;;;0.95;;
22737;SDS011;11536;50.860;4.286;2023-11-19T02:48:33;11.30;;;1.63;;
22737;SDS011;11536;50.860;4.286;2023-11-19T02:51:00;15.27;;;1.40;;
22737;SDS011;11536;50.860;4.286;2023-11-19T02:53:28;13.63;;;1.58;;
22737;SDS011;11536;50.860;4.286;2023-11-19T02:55:54;10.85;;;1.50;;
22737;SDS011;11536;50.860;4.286;2023-11-19T02:58:26;7.45;;;1.40;;
22737;SDS011;11536;50.860;4.286;2023-11-19T03:00:53;13.13;;;1.60;;
22737;SDS011;11536;50.860;4.286;2023-11-19T03:03:25;8.38;;;1.45;;
22737;SDS011;11536;50.860;4.286;2023-11-19T03:05:56;10.52;;;1.92;;
22737;SDS011;11536;50.860;4.286;2023-11-19T03:08:22;8.95;;;1.58;;
22737;SDS011;11536;50.860;4.286;2023-11-19T03:10:47;11.43;;;1.55;;
22737;SDS011;11536;50.860;4.286;2023-11-19T03:13:14;13.02;;;1.42;;
22737;SDS011;11536;50.860;4.286;2023-11-19T03:15:40;8.63;;;1.20;;
22737;SDS011;11536;50.860;4.286;2023-11-19T03:18:06;12.75;;;1.67;;
22737;SDS011;11536;50.860;4.286;2023-11-19T03:20:32;13.32;;;1.70;;
22737;SDS011;11536;50.860;4.286;2023-11-19T03:22:58;10.10;;;2.22;;
22737;SDS011;11536;50.860;4.286;2023-11-19T03:25:25;7.75;;;1.40;;
22737;SDS011;11536;50.860;4.286;2023-11-19T03:27:58;14.43;;;1.63;;
22737;SDS011;11536;50.860;4.286;2023-11-19T03:30:24;9.93;;;1.55;;
22737;SDS011;11536;50.860;4.286;2023-11-19T03:32:50;13.68;;;1.67;;
22737;SDS011;11536;50.860;4.286;2023-11-19T03:35:16;20.27;;;2.28;;
22737;SDS011;11536;50.860;4.286;2023-11-19T03:37:41;13.95;;;1.75;;
22737;SDS011;11536;50.860;4.286;2023-11-19T03:40:08;8.40;;;1.30;;
22737;SDS011;11536;50.860;4.286;2023-11-19T03:42:35;12.93;;;1.33;;
22737;SDS011;11536;50.860;4.286;2023-11-19T03:45:00;15.23;;;1.40;;
22737;SDS011;11536;50.860;4.286;2023-11-19T03:47:26;18.02;;;1.70;;
22737;SDS011;11536;50.860;4.286;2023-11-19T03:49:52;11.55;;;2.05;;
22737;SDS011;11536;50.860;4.286;2023-11-19T03:52:17;13.38;;;2.08;;
22737;SDS011;11536;50.860;4.286;2023-11-19T03:54:43;15.32;;;1.55;;
22737;SDS011;11536;50.860;4.286;2023-11-19T03:57:09;11.93;;;1.90;;
22737;SDS011;11536;50.860;4.286;2023-11-19T03:59:38;15.35;;;1.92;;
22737;SDS011;11536;50.860;4.286;2023-11-19T04:02:04;15.02;;;2.03;;
22737;SDS011;11536;50.860;4.286;2023-11-19T04:04:30;13.93;;;2.03;;
22737;SDS011;11536;50.860;4.286;2023-11-19T04:06:55;13.32;;;1.60;;
22737;SDS011;11536;50.860;4.286;2023-11-19T04:09:21;14.23;;;2.13;;
22737;SDS011;11536;50.860;4.286;2023-11-19T04:11:47;15.05;;;1.52;;
22737;SDS011;11536;50.860;4.286;2023-11-19T04:14:13;13.80;;;2.20;;
22737;SDS011;11536;50.860;4.286;2023-11-19T04:16:39;14.93;;;2.28;;
22737;SDS011;11536;50.860;4.286;2023-11-19T04:19:05;11.07;;;1.45;;
22737;SDS011;11536;50.860;4.286;2023-11-19T04:21:31;12.90;;;1.77;;
22737;SDS011;11536;50.860;4.286;2023-11-19T04:23:57;14.38;;;1.98;;
22737;SDS011;11536;50.860;4.286;2023-11-19T04:26:23;9.50;;;1.67;;
22737;SDS011;11536;50.860;4.286;2023-11-19T04:28:48;15.60;;;2.00;;
22737;SDS011;11536;50.860;4.286;2023-11-19T04:31:14;21.27;;;2.25;;
22737;SDS011;11536;50.860;4.286;2023-11-19T04:33:41;13.98;;;1.65;;
22737;SDS011;11536;50.860;4.286;2023-11-19T04:36:07;14.40;;;2.25;;
22737;SDS011;11536;50.860;4.286;2023-11-19T04:38:33;13.35;;;2.33;;
22737;SDS011;11536;50.860;4.286;2023-11-19T04:40:59;12.25;;;1.42;;
22737;SDS011;11536;50.860;4.286;2023-11-19T04:43:25;12.02;;;1.88;;
22737;SDS011;11536;50.860;4.286;2023-11-19T04:45:51;14.98;;;2.38;;
22737;SDS011;11536;50.860;4.286;2023-11-19T04:48:17;19.25;;;2.65;;
22737;SDS011;11536;50.860;4.286;2023-11-19T04:50:42;15.13;;;2.28;;
22737;SDS011;11536;50.860;4.286;2023-11-19T04:53:08;13.85;;;2.05;;
22737;SDS011;11536;50.860;4.286;2023-11-19T04:55:34;17.02;;;1.85;;
22737;SDS011;11536;50.860;4.286;2023-11-19T04:57:59;21.20;;;2.55;;
22737;SDS011;11536;50.860;4.286;2023-11-19T05:00:25;19.55;;;2.15;;
22737;SDS011;11536;50.860;4.286;2023-11-19T05:02:50;18.33;;;2.63;;
22737;SDS011;11536;50.860;4.286;2023-11-19T05:05:16;16.30;;;2.13;;
22737;SDS011;11536;50.860;4.286;2023-11-19T05:07:42;12.60;;;1.40;;
22737;SDS011;11536;50.860;4.286;2023-11-19T05:10:08;18.02;;;1.60;;
22737;SDS011;11536;50.860;4.286;2023-11-19T05:12:34;14.77;;;1.95;;
22737;SDS011;11536;50.860;4.286;2023-11-19T05:15:00;16.38;;;1.88;;
22737;SDS011;11536;50.860;4.286;2023-11-19T05:17:25;12.98;;;1.63;;
22737;SDS011;11536;50.860;4.286;2023-11-19T05:19:51;17.52;;;1.95;;
22737;SDS011;11536;50.860;4.286;2023-11-19T05:22:17;19.75;;;2.15;;
22737;SDS011;11536;50.860;4.286;2023-11-19T05:24:42;15.35;;;2.53;;
22737;SDS011;11536;50.860;4.286;2023-11-19T05:27:08;14.63;;;2.13;;
22737;SDS011;11536;50.860;4.286;2023-11-19T05:29:36;14.75;;;2.13;;
22737;SDS011;11536;50.860;4.286;2023-11-19T05:32:04;19.02;;;1.77;;
22737;SDS011;11536;50.860;4.286;2023-11-19T05:34:30;13.55;;;2.25;;
22737;SDS011;11536;50.860;4.286;2023-11-19T05:36:55;9.70;;;1.77;;
22737;SDS011;11536;50.860;4.286;2023-11-19T05:39:22;16.05;;;2.05;;
22737;SDS011;11536;50.860;4.286;2023-11-19T05:41:47;17.92;;;2.28;;
22737;SDS011;11536;50.860;4.286;2023-11-19T05:44:13;16.05;;;2.03;;
22737;SDS011;11536;50.860;4.286;2023-11-19T05:46:39;13.90;;;2.28;;
22737;SDS011;11536;50.860;4.286;2023-11-19T05:49:07;22.13;;;2.42;;
22737;SDS011;11536;50.860;4.286;2023-11-19T05:51:36;17.50;;;2.97;;
22737;SDS011;11536;50.860;4.286;2023-11-19T05:54:03;14.88;;;2.05;;
22737;SDS011;11536;50.860;4.286;2023-11-19T05:56:31;15.10;;;2.15;;
22737;SDS011;11536;50.860;4.286;2023-11-19T05:58:58;19.35;;;2.22;;
22737;SDS011;11536;50.860;4.286;2023-11-19T06:01:26;22.77;;;2.85;;
22737;SDS011;11536;50.860;4.286;2023-11-19T06:03:51;14.68;;;2.10;;
22737;SDS011;11536;50.860;4.286;2023-11-19T06:06:17;12.75;;;2.00;;
22737;SDS011;11536;50.860;4.286;2023-11-19T06:08:43;16.73;;;1.65;;
22737;SDS011;11536;50.860;4.286;2023-11-19T06:11:09;14.02;;;1.83;;
22737;SDS011;11536;50.860;4.286;2023-11-19T06:13:39;21.55;;;2.53;;
22737;SDS011;11536;50.860;4.286;2023-11-19T06:16:05;16.30;;;2.65;;
22737;SDS011;11536;50.860;4.286;2023-11-19T06:18:31;16.42;;;2.47;;
22737;SDS011;11536;50.860;4.286;2023-11-19T06:20:57;15.68;;;1.83;;
22737;SDS011;11536;50.860;4.286;2023-11-19T06:23:23;15.63;;;2.08;;
22737;SDS011;11536;50.860;4.286;2023-11-19T06:25:48;13.27;;;1.98;;
22737;SDS011;11536;50.860;4.286;2023-11-19T06:28:14;10.98;;;1.75;;
22737;SDS011;11536;50.860;4.286;2023-11-19T06:30:40;20.05;;;2.50;;
22737;SDS011;11536;50.860;4.286;2023-11-19T06:33:06;18.05;;;2.95;;
22737;SDS011;11536;50.860;4.286;2023-11-19T06:35:32;19.02;;;2.58;;
22737;SDS011;11536;50.860;4.286;2023-11-19T06:38:02;17.27;;;1.75;;
22737;SDS011;11536;50.860;4.286;2023-11-19T06:40:29;11.98;;;1.80;;
22737;SDS011;11536;50.860;4.286;2023-11-19T06:42:55;16.13;;;1.90;;
22737;SDS011;11536;50.860;4.286;2023-11-19T06:45:21;18.58;;;2.28;;
22737;SDS011;11536;50.860;4.286;2023-11-19T06:47:47;11.30;;;2.20;;
22737;SDS011;11536;50.860;4.286;2023-11-19T06:50:12;15.38;;;2.53;;
22737;SDS011;11536;50.860;4.286;2023-11-19T06:52:38;13.32;;;2.00;;
22737;SDS011;11536;50.860;4.286;2023-11-19T06:55:04;22.23;;;2.10;;
22737;SDS011;11536;50.860;4.286;2023-11-19T06:57:30;18.98;;;2.53;;
22737;SDS011;11536;50.860;4.286;2023-11-19T06:59:57;11.77;;;2.03;;
22737;SDS011;11536;50.860;4.286;2023-11-19T07:02:23;14.48;;;1.90;;
22737;SDS011;11536;50.860;4.286;2023-11-19T07:04:49;16.05;;;2.65;;
22737;SDS011;11536;50.860;4.286;2023-11-19T07:07:16;16.30;;;2.53;;
22737;SDS011;11536;50.860;4.286;2023-11-19T07:09:41;16.80;;;2.80;;
22737;SDS011;11536;50.860;4.286;2023-11-19T07:12:07;12.07;;;1.95;;
22737;SDS011;11536;50.860;4.286;2023-11-19T07:14:33;13.15;;;2.42;;
22737;SDS011;11536;50.860;4.286;2023-11-19T07:16:59;14.85;;;2.05;;
22737;SDS011;11536;50.860;4.286;2023-11-19T07:19:25;17.95;;;2.38;;
22737;SDS011;11536;50.860;4.286;2023-11-19T07:21:51;16.13;;;2.05;;
22737;SDS011;11536;50.860;4.286;2023-11-19T07:24:19;17.52;;;1.95;;
22737;SDS011;11536;50.860;4.286;2023-11-19T07:26:46;17.85;;;2.40;;
22737;SDS011;11536;50.860;4.286;2023-11-19T07:29:12;18.98;;;2.22;;
22737;SDS011;11536;50.860;4.286;2023-11-19T07:31:40;17.23;;;2.38;;
22737;SDS011;11536;50.860;4.286;2023-11-19T07:34:05;22.13;;;2.22;;
22737;SDS011;11536;50.860;4.286;2023-11-19T07:36:31;14.77;;;2.70;;
22737;SDS011;11536;50.860;4.286;2023-11-19T07:38:57;15.25;;;2.40;;
22737;SDS011;11536;50.860;4.286;2023-11-19T07:41:24;19.13;;;2.17;;
22737;SDS011;11536;50.860;4.286;2023-11-19T07:43:50;14.75;;;2.67;;
22737;SDS011;11536;50.860;4.286;2023-11-19T07:46:16;22.63;;;2.65;;
22737;SDS011;11536;50.860;4.286;2023-11-19T07:48:44;17.05;;;2.25;;
22737;SDS011;11536;50.860;4.286;2023-11-19T07:51:12;14.98;;;2.35;;
22737;SDS011;11536;50.860;4.286;2023-11-19T07:53:38;16.38;;;2.45;;
22737;SDS011;11536;50.860;4.286;2023-11-19T07:56:04;13.57;;;1.85;;
22737;SDS011;11536;50.860;4.286;2023-11-19T07:58:30;14.15;;;1.85;;
22737;SDS011;11536;50.860;4.286;2023-11-19T08:00:56;14.20;;;1.80;;
22737;SDS011;11536;50.860;4.286;2023-11-19T08:03:22;16.67;;;2.58;;
22737;SDS011;11536;50.860;4.286;2023-11-19T08:05:48;16.73;;;2.13;;
22737;SDS011;11536;50.860;4.286;2023-11-19T08:08:14;14.63;;;1.90;;
22737;SDS011;11536;50.860;4.286;2023-11-19T08:10:40;17.23;;;2.72;;
22737;SDS011;11536;50.860;4.286;2023-11-19T08:13:06;18.85;;;2.42;;
22737;SDS011;11536;50.860;4.286;2023-11-19T08:15:32;14.45;;;1.92;;
22737;SDS011;11536;50.860;4.286;2023-11-19T08:17:58;15.95;;;2.17;;
22737;SDS011;11536;50.860;4.286;2023-11-19T08:20:23;10.93;;;1.80;;
22737;SDS011;11536;50.860;4.286;2023-11-19T08:22:49;16.23;;;1.83;;
22737;SDS011;11536;50.860;4.286;2023-11-19T08:25:15;10.23;;;1.63;;
22737;SDS011;11536;50.860;4.286;2023-11-19T08:27:40;14.88;;;2.15;;
22737;SDS011;11536;50.860;4.286;2023-11-19T08:30:06;13.13;;;1.63;;
22737;SDS011;11536;50.860;4.286;2023-11-19T08:32:32;15.73;;;2.42;;
22737;SDS011;11536;50.860;4.286;2023-11-19T08:34:59;15.98;;;2.00;;
22737;SDS011;11536;50.860;4.286;2023-11-19T08:37:25;16.83;;;2.22;;
22737;SDS011;11536;50.860;4.286;2023-11-19T08:39:50;11.10;;;1.75;;
22737;SDS011;11536;50.860;4.286;2023-11-19T08:42:16;15.27;;;2.42;;
22737;SDS011;11536;50.860;4.286;2023-11-19T08:44:48;13.90;;;2.03;;
22737;SDS011;11536;50.860;4.286;2023-11-19T08:47:15;12.27;;;1.67;;
22737;SDS011;11536;50.860;4.286;2023-11-19T08:49:43;14.38;;;2.10;;
22737;SDS011;11536;50.860;4.286;2023-11-19T08:52:09;12.07;;;1.80;;
22737;SDS011;11536;50.860;4.286;2023-11-19T08:54:35;9.70;;;1.67;;
22737;SDS011;11536;50.860;4.286;2023-11-19T08:57:09;18.65;;;3.00;;
22737;SDS011;11536;50.860;4.286;2023-11-19T08:59:35;11.70;;;2.40;;
22737;SDS011;11536;50.860;4.286;2023-11-19T09:02:03;15.05;;;2.17;;
22737;SDS011;11536;50.860;4.286;2023-11-19T09:04:29;16.15;;;2.45;;
22737;SDS011;11536;50.860;4.286;2023-11-19T09:06:54;11.85;;;1.90;;
22737;SDS011;11536;50.860;4.286;2023-11-19T09:09:25;15.98;;;2.65;;
22737;SDS011;11536;50.860;4.286;2023-11-19T09:11:51;14.35;;;1.85;;
22737;SDS011;11536;50.860;4.286;2023-11-19T09:14:16;12.65;;;1.58;;
22737;SDS011;11536;50.860;4.286;2023-11-19T09:16:43;14.20;;;2.22;;
22737;SDS011;11536;50.860;4.286;2023-11-19T09:19:09;12.50;;;1.92;;
22737;SDS011;11536;50.860;4.286;2023-11-19T09:21:34;13.23;;;2.33;;
22737;SDS011;11536;50.860;4.286;2023-11-19T09:24:03;15.00;;;2.10;;
22737;SDS011;11536;50.860;4.286;2023-11-19T09:26:29;10.57;;;2.20;;
22737;SDS011;11536;50.860;4.286;2023-11-19T09:28:55;15.38;;;1.48;;
22737;SDS011;11536;50.860;4.286;2023-11-19T09:31:21;13.77;;;1.67;;
22737;SDS011;11536;50.860;4.286;2023-11-19T09:33:47;15.23;;;2.15;;
22737;SDS011;11536;50.860;4.286;2023-11-19T09:36:12;10.25;;;1.63;;
22737;SDS011;11536;50.860;4.286;2023-11-19T09:38:42;17.27;;;1.50;;
22737;SDS011;11536;50.860;4.286;2023-11-19T09:41:09;12.55;;;1.50;;
22737;SDS011;11536;50.860;4.286;2023-11-19T09:43:37;10.10;;;1.55;;
22737;SDS011;11536;50.860;4.286;2023-11-19T09:46:04;15.23;;;2.10;;
22737;SDS011;11536;50.860;4.286;2023-11-19T09:48:34;12.25;;;1.63;;
22737;SDS011;11536;50.860;4.286;2023-11-19T09:51:01;15.52;;;2.10;;
22737;SDS011;11536;50.860;4.286;2023-11-19T09:53:27;15.60;;;2.03;;
22737;SDS011;11536;50.860;4.286;2023-11-19T09:55:53;14.60;;;1.90;;
22737;SDS011;11536;50.860;4.286;2023-11-19T09:58:20;18.90;;;2.15;;
22737;SDS011;11536;50.860;4.286;2023-11-19T10:00:45;14.18;;;2.63;;
22737;SDS011;11536;50.860;4.286;2023-11-19T10:03:12;8.13;;;1.27;;
22737;SDS011;11536;50.860;4.286;2023-11-19T10:05:38;18.25;;;2.55;;
22737;SDS011;11536;50.860;4.286;2023-11-19T10:08:05;18.05;;;2.45;;
22737;SDS011;11536;50.860;4.286;2023-11-19T10:10:32;17.42;;;2.65;;
22737;SDS011;11536;50.860;4.286;2023-11-19T10:12:59;17.08;;;2.03;;
22737;SDS011;11536;50.860;4.286;2023-11-19T10:15:25;13.88;;;2.22;;
22737;SDS011;11536;50.860;4.286;2023-11-19T10:17:52;14.07;;;2.10;;
22737;SDS011;11536;50.860;4.286;2023-11-19T10:20:23;13.80;;;1.80;;
22737;SDS011;11536;50.860;4.286;2023-11-19T10:22:52;14.70;;;2.00;;
22737;SDS011;11536;50.860;4.286;2023-11-19T10:27:47;16.95;;;1.92;;
22737;SDS011;11536;50.860;4.286;2023-11-19T10:30:13;16.08;;;2.13;;
22737;SDS011;11536;50.860;4.286;2023-11-19T10:32:42;19.48;;;2.35;;
22737;SDS011;11536;50.860;4.286;2023-11-19T10:35:08;8.75;;;1.75;;
22737;SDS011;11536;50.860;4.286;2023-11-19T10:37:33;9.75;;;1.90;;
22737;SDS011;11536;50.860;4.286;2023-11-19T10:40:02;12.70;;;2.30;;
22737;SDS011;11536;50.860;4.286;2023-11-19T10:42:30;10.65;;;1.50;;
22737;SDS011;11536;50.860;4.286;2023-11-19T10:44:56;10.73;;;1.73;;
22737;SDS011;11536;50.860;4.286;2023-11-19T10:47:22;15.38;;;1.60;;
22737;SDS011;11536;50.860;4.286;2023-11-19T10:49:48;11.57;;;1.58;;
22737;SDS011;11536;50.860;4.286;2023-11-19T10:52:20;14.52;;;1.63;;
22737;SDS011;11536;50.860;4.286;2023-11-19T10:54:49;9.98;;;1.40;;
22737;SDS011;11536;50.860;4.286;2023-11-19T10:57:21;15.68;;;1.85;;
22737;SDS011;11536;50.860;4.286;2023-11-19T10:59:49;15.18;;;2.20;;
22737;SDS011;11536;50.860;4.286;2023-11-19T11:02:19;11.05;;;1.73;;
22737;SDS011;11536;50.860;4.286;2023-11-19T11:04:49;13.57;;;2.38;;
22737;SDS011;11536;50.860;4.286;2023-11-19T11:07:16;12.88;;;2.40;;
22737;SDS011;11536;50.860;4.286;2023-11-19T11:09:46;15.18;;;2.28;;
22737;SDS011;11536;50.860;4.286;2023-11-19T11:12:13;11.38;;;2.72;;
22737;SDS011;11536;50.860;4.286;2023-11-19T11:14:41;17.52;;;1.85;;
22737;SDS011;11536;50.860;4.286;2023-11-19T11:17:09;10.88;;;1.70;;
22737;SDS011;11536;50.860;4.286;2023-11-19T11:19:37;14.27;;;2.03;;
22737;SDS011;11536;50.860;4.286;2023-11-19T11:22:04;20.02;;;2.03;;
22737;SDS011;11536;50.860;4.286;2023-11-19T11:30:07;12.40;;;1.98;;
22737;SDS011;11536;50.860;4.286;2023-11-19T11:38:01;13.02;;;2.05;;
22737;SDS011;11536;50.860;4.286;2023-11-19T11:40:29;9.85;;;1.60;;
22737;SDS011;11536;50.860;4.286;2023-11-19T11:42:56;12.80;;;1.90;;
22737;SDS011;11536;50.860;4.286;2023-11-19T11:45:35;14.27;;;1.63;;
22737;SDS011;11536;50.860;4.286;2023-11-19T11:48:11;15.45;;;2.50;;
22737;SDS011;11536;50.860;4.286;2023-11-19T11:53:32;20.48;;;2.20;;
22737;SDS011;11536;50.860;4.286;2023-11-19T11:56:00;16.83;;;2.15;;
22737;SDS011;11536;50.860;4.286;2023-11-19T11:58:31;13.52;;;1.98;;
22737;SDS011;11536;50.860;4.286;2023-11-19T12:00:59;14.45;;;1.88;;
22737;SDS011;11536;50.860;4.286;2023-11-19T12:03:27;12.70;;;1.63;;
22737;SDS011;11536;50.860;4.286;2023-11-19T12:05:54;14.57;;;2.10;;
22737;SDS011;11536;50.860;4.286;2023-11-19T12:08:24;12.73;;;1.75;;
22737;SDS011;11536;50.860;4.286;2023-11-19T12:10:52;8.80;;;1.27;;
22737;SDS011;11536;50.860;4.286;2023-11-19T12:13:19;7.97;;;2.03;;
22737;SDS011;11536;50.860;4.286;2023-11-19T12:18:23;12.55;;;2.03;;
22737;SDS011;11536;50.860;4.286;2023-11-19T12:20:51;10.30;;;1.30;;
22737;SDS011;11536;50.860;4.286;2023-11-19T12:23:18;11.13;;;1.85;;
22737;SDS011;11536;50.860;4.286;2023-11-19T12:25:44;10.15;;;1.50;;
22737;SDS011;11536;50.860;4.286;2023-11-19T12:28:13;9.65;;;1.38;;
22737;SDS011;11536;50.860;4.286;2023-11-19T12:30:43;14.05;;;1.58;;
22737;SDS011;11536;50.860;4.286;2023-11-19T12:33:09;12.32;;;1.75;;
22737;SDS011;11536;50.860;4.286;2023-11-19T12:35:39;10.85;;;2.17;;
22737;SDS011;11536;50.860;4.286;2023-11-19T12:38:07;12.85;;;2.10;;
22737;SDS011;11536;50.860;4.286;2023-11-19T12:40:34;15.25;;;2.00;;
22737;SDS011;11536;50.860;4.286;2023-11-19T12:43:00;15.90;;;2.28;;
22737;SDS011;11536;50.860;4.286;2023-11-19T12:45:35;13.88;;;2.47;;
22737;SDS011;11536;50.860;4.286;2023-11-19T12:48:07;13.73;;;1.95;;
22737;SDS011;11536;50.860;4.286;2023-11-19T12:50:55;13.43;;;1.95;;
22737;SDS011;11536;50.860;4.286;2023-11-19T12:53:26;14.55;;;2.20;;
22737;SDS011;11536;50.860;4.286;2023-11-19T12:56:11;11.48;;;1.60;;
22737;SDS011;11536;50.860;4.286;2023-11-19T12:58:37;18.75;;;2.78;;
22737;SDS011;11536;50.860;4.286;2023-11-19T13:01:04;12.75;;;2.78;;
22737;SDS011;11536;50.860;4.286;2023-11-19T13:03:35;13.07;;;1.77;;
22737;SDS011;11536;50.860;4.286;2023-11-19T13:08:29;14.95;;;2.67;;
22737;SDS011;11536;50.860;4.286;2023-11-19T13:11:02;14.02;;;2.08;;
22737;SDS011;11536;50.860;4.286;2023-11-19T13:13:28;11.63;;;2.25;;
22737;SDS011;11536;50.860;4.286;2023-11-19T13:16:01;15.98;;;2.42;;
22737;SDS011;11536;50.860;4.286;2023-11-19T13:18:35;17.80;;;2.13;;
22737;SDS011;11536;50.860;4.286;2023-11-19T13:21:01;18.95;;;2.85;;
22737;SDS011;11536;50.860;4.286;2023-11-19T13:23:27;12.93;;;2.50;;
22737;SDS011;11536;50.860;4.286;2023-11-19T13:25:53;13.10;;;2.00;;
22737;SDS011;11536;50.860;4.286;2023-11-19T13:28:18;14.65;;;1.65;;
22737;SDS011;11536;50.860;4.286;2023-11-19T13:30:44;13.25;;;1.77;;
22737;SDS011;11536;50.860;4.286;2023-11-19T13:33:09;11.55;;;1.63;;
22737;SDS011;11536;50.860;4.286;2023-11-19T13:35:37;13.40;;;2.63;;
22737;SDS011;11536;50.860;4.286;2023-11-19T13:38:05;15.30;;;1.85;;
22737;SDS011;11536;50.860;4.286;2023-11-19T13:40:31;14.25;;;2.35;;
22737;SDS011;11536;50.860;4.286;2023-11-19T13:42:56;15.00;;;2.05;;
22737;SDS011;11536;50.860;4.286;2023-11-19T13:45:22;9.02;;;1.60;;
22737;SDS011;11536;50.860;4.286;2023-11-19T13:47:47;15.05;;;2.60;;
22737;SDS011;11536;50.860;4.286;2023-11-19T13:50:14;15.40;;;1.90;;
22737;SDS011;11536;50.860;4.286;2023-11-19T13:52:42;15.02;;;2.28;;
22737;SDS011;11536;50.860;4.286;2023-11-19T13:55:10;18.48;;;3.13;;
22737;SDS011;11536;50.860;4.286;2023-11-19T13:57:36;9.60;;;1.88;;
22737;SDS011;11536;50.860;4.286;2023-11-19T14:00:03;9.98;;;1.60;;
22737;SDS011;11536;50.860;4.286;2023-11-19T14:02:31;14.00;;;2.03;;
22737;SDS011;11536;50.860;4.286;2023-11-19T14:05:00;12.88;;;1.85;;
22737;SDS011;11536;50.860;4.286;2023-11-19T14:07:25;16.02;;;2.22;;
22737;SDS011;11536;50.860;4.286;2023-11-19T14:09:52;15.77;;;2.28;;
22737;SDS011;11536;50.860;4.286;2023-11-19T14:12:19;9.88;;;1.98;;
22737;SDS011;11536;50.860;4.286;2023-11-19T14:14:45;11.02;;;1.55;;
22737;SDS011;11536;50.860;4.286;2023-11-19T14:17:11;11.93;;;1.92;;
22737;SDS011;11536;50.860;4.286;2023-11-19T14:19:36;14.50;;;1.85;;
22737;SDS011;11536;50.860;4.286;2023-11-19T14:22:04;16.25;;;2.75;;
22737;SDS011;11536;50.860;4.286;2023-11-19T14:24:30;18.45;;;2.28;;
22737;SDS011;11536;50.860;4.286;2023-11-19T14:26:56;18.25;;;2.25;;
22737;SDS011;11536;50.860;4.286;2023-11-19T14:29:23;15.35;;;3.33;;
22737;SDS011;11536;50.860;4.286;2023-11-19T14:31:51;14.85;;;2.33;;
22737;SDS011;11536;50.860;4.286;2023-11-19T14:34:17;12.70;;;1.98;;
22737;SDS011;11536;50.860;4.286;2023-11-19T14:36:44;14.80;;;2.10;;
22737;SDS011;11536;50.860;4.286;2023-11-19T14:39:10;13.23;;;2.00;;
22737;SDS011;11536;50.860;4.286;2023-11-19T14:41:35;16.05;;;2.95;;
22737;SDS011;11536;50.860;4.286;2023-11-19T14:44:01;13.57;;;1.70;;
22737;SDS011;11536;50.860;4.286;2023-11-19T14:46:28;16.70;;;2.50;;
22737;SDS011;11536;50.860;4.286;2023-11-19T14:48:54;13.77;;;2.63;;
22737;SDS011;11536;50.860;4.286;2023-11-19T14:51:20;19.23;;;4.53;;
22737;SDS011;11536;50.860;4.286;2023-11-19T14:53:46;16.88;;;2.53;;
22737;SDS011;11536;50.860;4.286;2023-11-19T14:56:12;16.23;;;2.28;;
22737;SDS011;11536;50.860;4.286;2023-11-19T14:58:38;18.23;;;2.58;;
22737;SDS011;11536;50.860;4.286;2023-11-19T15:01:04;16.55;;;2.67;;